Terminal Aerodrome Forecast
Issued by NWS

Home | Current Version | Previous Version | Text Only | Print | Product List | Glossary On
Versions: 1 2 3 4 5 6 7 8 9 10 11 12 13 14 15
272
FTUS43 KBIS 270524
TAFJMS
TAF
KJMS 270524Z 2706/2806 24005KT P6SM FEW070 FEW250
     FM271500 25010KT P6SM FEW070 SCT200
     FM272000 28015G22KT P6SM VCSH BKN090
     FM280100 31008KT P6SM SCT060 BKN110
     FM280300 30006KT P6SM FEW045 SCT110=

USA.gov is the U.S. government's official web portal to all federal, state and local government web resources and services.